createdAt,value
2023-05-01T00:01:13.381Z,100.00
2023-05-01T00:04:02.096Z,100.00
2023-05-01T00:06:52.275Z,100.00
2023-05-01T00:09:40.893Z,100.00
2023-05-01T00:12:29.461Z,100.00
2023-05-01T00:15:18.178Z,100.00
2023-05-01T00:18:06.687Z,100.00
2023-05-01T00:20:55.209Z,100.00
2023-05-01T00:23:45.027Z,100.00
2023-05-01T00:26:33.515Z,100.00
2023-05-01T00:29:21.968Z,100.00
2023-05-01T00:32:10.607Z,100.00
2023-05-01T00:34:59.260Z,100.00
2023-05-01T00:37:48.087Z,100.00
2023-05-01T00:40:44.263Z,100.00
2023-05-01T00:43:32.751Z,100.00
2023-05-01T00:46:21.726Z,100.00
2023-05-01T00:49:10.733Z,100.00
2023-05-01T00:51:59.542Z,100.00
2023-05-01T00:54:52.003Z,100.00
2023-05-01T00:57:41.975Z,100.00
2023-05-01T01:00:31.044Z,100.00
2023-05-01T01:03:19.714Z,100.00
2023-05-01T01:06:11.637Z,100.00
2023-05-01T01:09:08.169Z,100.00
2023-05-01T01:12:04.742Z,100.00
2023-05-01T01:15:00.459Z,100.00
2023-05-01T01:17:53.880Z,100.00
2023-05-01T01:20:46.403Z,100.00
2023-05-01T01:23:45.604Z,100.00
2023-05-01T01:27:02.270Z,100.00
2023-05-01T01:30:19.910Z,100.00
2023-05-01T01:33:56.054Z,100.00
2023-05-01T01:36:50.540Z,100.00
2023-05-01T01:39:45.244Z,100.00
2023-05-01T01:42:37.799Z,100.00
2023-05-01T01:45:31.569Z,100.00
2023-05-01T01:48:24.911Z,100.00
2023-05-01T01:51:17.255Z,100.00
2023-05-01T01:54:07.813Z,100.00
2023-05-01T01:56:56.603Z,100.00
2023-05-01T01:59:45.593Z,100.00
2023-05-01T02:02:34.195Z,100.00
2023-05-01T02:05:23.567Z,100.00
2023-05-01T02:08:12.780Z,100.00
2023-05-01T02:11:03.174Z,100.00
2023-05-01T02:13:52.513Z,100.00
2023-05-01T02:16:41.274Z,100.00
2023-05-01T02:19:29.857Z,100.00
2023-05-01T02:22:18.916Z,100.00
2023-05-01T02:25:08.620Z,100.00
2023-05-01T02:28:01.255Z,100.00
2023-05-01T02:30:49.816Z,100.00
2023-05-01T02:33:38.331Z,100.00
2023-05-01T02:36:27.723Z,100.00
2023-05-01T02:39:16.214Z,100.00
2023-05-01T02:42:05.739Z,100.00
2023-05-01T02:44:59.288Z,100.00
2023-05-01T02:47:50.804Z,100.00
2023-05-01T02:50:40.707Z,100.00
2023-05-01T02:53:29.211Z,100.00
2023-05-01T02:56:17.767Z,100.00
2023-05-01T02:59:06.600Z,100.00
2023-05-01T03:01:56.422Z,100.00
2023-05-01T03:04:45.036Z,100.00
2023-05-01T03:07:35.272Z,100.00
2023-05-01T03:10:23.868Z,100.00
2023-05-01T03:13:12.544Z,100.00
2023-05-01T03:16:01.336Z,100.00
2023-05-01T03:18:51.180Z,100.00
2023-05-01T03:21:39.647Z,100.00
2023-05-01T03:24:28.254Z,100.00
2023-05-01T03:27:16.703Z,100.00
2023-05-01T03:30:05.980Z,100.00
2023-05-01T03:32:55.134Z,100.00
2023-05-01T03:35:45.038Z,100.00
2023-05-01T03:38:34.076Z,100.00
2023-05-01T03:41:22.629Z,100.00
2023-05-01T03:44:11.037Z,100.00
2023-05-01T03:46:59.490Z,100.00
2023-05-01T03:49:47.981Z,100.00
2023-05-01T03:52:37.902Z,100.00
2023-05-01T03:55:26.702Z,100.00
2023-05-01T03:58:15.159Z,100.00
2023-05-01T04:01:03.764Z,100.00
2023-05-01T04:03:52.424Z,100.00
2023-05-01T04:06:41.164Z,100.00
2023-05-01T04:09:31.154Z,100.00
2023-05-01T04:12:19.723Z,100.00
2023-05-01T04:15:09.858Z,100.00
2023-05-01T04:17:58.343Z,100.00
2023-05-01T04:20:46.950Z,100.00
2023-05-01T04:23:35.381Z,100.00
2023-05-01T04:26:25.199Z,100.00
2023-05-01T04:29:13.645Z,100.00
2023-05-01T04:32:02.177Z,100.00
2023-05-01T04:34:50.673Z,100.00
2023-05-01T04:37:39.154Z,100.00
2023-05-01T04:40:27.619Z,100.00
2023-05-01T04:43:17.405Z,100.00
2023-05-01T04:46:06.089Z,100.00
2023-05-01T04:48:54.564Z,100.00
2023-05-01T04:51:43.080Z,100.00
2023-05-01T04:54:31.741Z,100.00
2023-05-01T04:57:20.200Z,100.00
2023-05-01T05:00:11.255Z,100.00
2023-05-01T05:02:59.862Z,100.00
2023-05-01T05:05:48.424Z,100.00
2023-05-01T05:08:36.885Z,100.00
2023-05-01T05:11:26.405Z,100.00
2023-05-01T05:14:14.896Z,100.00
2023-05-01T05:17:04.706Z,98.45
2023-05-01T05:19:53.307Z,97.85
2023-05-01T05:22:41.890Z,98.78
2023-05-01T05:25:30.381Z,96.97
2023-05-01T05:28:18.914Z,95.33
2023-05-01T05:31:07.417Z,94.63
2023-05-01T05:33:57.242Z,92.51
2023-05-01T05:36:45.708Z,93.08
2023-05-01T05:39:34.204Z,93.07
2023-05-01T05:42:22.686Z,91.24
2023-05-01T05:45:11.805Z,91.34
2023-05-01T05:48:00.356Z,90.88
2023-05-01T05:50:51.019Z,89.85
2023-05-01T05:53:39.525Z,89.63
2023-05-01T05:56:27.970Z,89.58
2023-05-01T05:59:17.619Z,89.59
2023-05-01T06:02:06.188Z,89.74
2023-05-01T06:04:54.676Z,88.59
2023-05-01T06:07:44.557Z,88.46
2023-05-01T06:10:33.039Z,87.56
2023-05-01T06:13:21.470Z,87.03
2023-05-01T06:16:10.075Z,86.33
2023-05-01T06:18:58.595Z,86.23
2023-05-01T06:21:47.079Z,86.10
2023-05-01T06:24:37.519Z,85.55
2023-05-01T06:27:26.007Z,85.47
2023-05-01T06:30:14.598Z,83.73
2023-05-01T06:33:03.282Z,83.76
2023-05-01T06:35:52.098Z,85.12
2023-05-01T06:38:41.457Z,84.99
2023-05-01T06:41:32.602Z,83.14
2023-05-01T06:44:21.036Z,83.00
2023-05-01T06:47:09.717Z,83.17
2023-05-01T06:49:58.374Z,82.88
2023-05-01T06:52:47.233Z,82.97
2023-05-01T06:55:36.004Z,82.81
2023-05-01T06:58:25.900Z,82.66
2023-05-01T07:01:14.449Z,81.81
2023-05-01T07:04:04.036Z,79.86
2023-05-01T07:06:52.666Z,79.37
2023-05-01T07:09:41.894Z,79.83
2023-05-01T07:12:30.657Z,79.16
2023-05-01T07:15:20.643Z,78.66
2023-05-01T07:18:09.252Z,77.10
2023-05-01T07:20:57.967Z,76.96
2023-05-01T07:23:46.697Z,78.88
2023-05-01T07:26:35.174Z,78.00
2023-05-01T07:29:23.788Z,77.78
2023-05-01T07:32:14.582Z,77.37
2023-05-01T07:35:03.682Z,77.16
2023-05-01T07:37:53.186Z,77.38
2023-05-01T07:40:42.075Z,77.66
2023-05-01T07:43:30.565Z,76.19
2023-05-01T07:46:19.173Z,76.12
2023-05-01T07:49:09.998Z,76.10
2023-05-01T07:51:58.489Z,76.04
2023-05-01T07:54:50.881Z,77.65
2023-05-01T07:57:39.692Z,78.07
2023-05-01T08:00:28.199Z,75.92
2023-05-01T08:03:16.885Z,76.10
2023-05-01T08:06:07.683Z,74.74
2023-05-01T08:08:56.317Z,75.70
2023-05-01T08:11:44.974Z,74.43
2023-05-01T08:14:33.420Z,74.16
2023-05-01T08:17:22.012Z,74.17
2023-05-01T08:20:12.257Z,74.55
2023-05-01T08:23:02.332Z,74.18
2023-05-01T08:25:52.664Z,73.74
2023-05-01T08:28:42.208Z,72.75
2023-05-01T08:31:31.150Z,71.77
2023-05-01T08:34:19.772Z,73.20
2023-05-01T08:37:08.379Z,73.17
2023-05-01T08:39:58.390Z,71.75
2023-05-01T08:42:48.009Z,72.36
2023-05-01T08:45:38.289Z,73.27
2023-05-01T08:48:27.408Z,73.65
2023-05-01T08:51:19.031Z,74.25
2023-05-01T08:54:09.094Z,73.92
2023-05-01T08:57:03.611Z,74.43
2023-05-01T08:59:53.477Z,75.21
2023-05-01T09:02:42.525Z,75.55
2023-05-01T09:05:34.069Z,75.33
2023-05-01T09:08:22.559Z,75.96
2023-05-01T09:11:12.863Z,75.82
2023-05-01T09:14:05.409Z,76.13
2023-05-01T09:16:54.235Z,74.95
2023-05-01T09:19:42.801Z,74.94
2023-05-01T09:22:31.699Z,75.43
2023-05-01T09:25:20.534Z,74.94
2023-05-01T09:28:09.084Z,75.40
2023-05-01T09:30:59.205Z,74.73
2023-05-01T09:33:53.042Z,74.42
2023-05-01T09:36:47.502Z,72.05
2023-05-01T09:39:37.139Z,72.24
2023-05-01T09:42:25.977Z,70.69
2023-05-01T09:45:15.544Z,70.04
2023-05-01T09:48:13.105Z,68.96
2023-05-01T09:51:01.676Z,66.85
2023-05-01T09:53:51.419Z,67.53
2023-05-01T09:56:48.553Z,67.40
2023-05-01T09:59:37.091Z,66.62
2023-05-01T10:02:34.465Z,68.03
2023-05-01T10:05:27.418Z,67.29
2023-05-01T10:08:16.271Z,67.87
2023-05-01T10:11:05.672Z,69.25
2023-05-01T10:14:08.673Z,69.45
2023-05-01T10:16:57.863Z,67.84
2023-05-01T10:19:47.070Z,68.98
2023-05-01T10:22:37.001Z,68.70
2023-05-01T10:25:26.640Z,67.74
2023-05-01T10:28:15.429Z,68.43
2023-05-01T10:31:04.613Z,65.75
2023-05-01T10:33:53.511Z,66.13
2023-05-01T10:36:46.012Z,66.09
2023-05-01T10:39:37.316Z,65.20
2023-05-01T10:42:26.209Z,65.66
2023-05-01T10:45:30.241Z,64.45
2023-05-01T10:48:52.338Z,64.62
2023-05-01T10:51:59.601Z,66.80
2023-05-01T10:54:49.423Z,65.50
2023-05-01T10:57:44.904Z,65.15
2023-05-01T11:00:34.355Z,65.56
2023-05-01T11:03:40.294Z,65.94
2023-05-01T11:06:29.285Z,64.84
2023-05-01T11:09:37.273Z,64.90
2023-05-01T11:12:52.416Z,66.70
2023-05-01T11:15:41.317Z,65.10
2023-05-01T11:18:47.648Z,65.32
2023-05-01T11:21:36.980Z,64.27
2023-05-01T11:24:32.870Z,62.28
2023-05-01T11:27:22.316Z,62.63
2023-05-01T11:30:14.185Z,62.42
2023-05-01T11:33:03.895Z,63.48
2023-05-01T11:36:02.509Z,63.62
2023-05-01T11:38:51.579Z,61.76
2023-05-01T11:41:40.315Z,61.50
2023-05-01T11:44:30.222Z,59.90
2023-05-01T11:47:20.157Z,58.67
2023-05-01T11:50:10.290Z,60.37
2023-05-01T11:52:58.844Z,58.15
2023-05-01T11:55:47.597Z,58.17
2023-05-01T11:58:36.863Z,59.37
2023-05-01T12:01:38.308Z,57.36
2023-05-01T12:04:32.380Z,57.03
2023-05-01T12:07:22.773Z,57.01
2023-05-01T12:10:11.869Z,56.33
2023-05-01T12:13:00.661Z,55.99
2023-05-01T12:15:50.510Z,56.31
2023-05-01T12:18:39.432Z,57.10
2023-05-01T12:21:29.469Z,56.43
2023-05-01T12:24:20.073Z,56.99
2023-05-01T12:27:09.201Z,57.88
2023-05-01T12:29:58.107Z,58.25
2023-05-01T12:32:46.700Z,58.60
2023-05-01T12:35:35.303Z,59.30
2023-05-01T12:38:25.322Z,59.61
2023-05-01T12:41:14.075Z,59.91
2023-05-01T12:44:02.967Z,59.30
2023-05-01T12:46:57.059Z,57.65
2023-05-01T12:49:45.813Z,58.50
2023-05-01T12:52:34.296Z,59.21
2023-05-01T12:55:24.490Z,57.74
2023-05-01T12:58:13.122Z,58.11
2023-05-01T13:01:01.844Z,59.06
2023-05-01T13:03:50.830Z,59.47
2023-05-01T13:06:39.448Z,60.24
2023-05-01T13:09:30.979Z,61.03
2023-05-01T13:12:20.968Z,61.76
2023-05-01T13:15:10.792Z,62.88
2023-05-01T13:18:05.517Z,62.84
2023-05-01T13:20:54.327Z,63.73
2023-05-01T13:23:44.346Z,62.27
2023-05-01T13:26:35.757Z,63.34
2023-05-01T13:29:26.843Z,64.19
2023-05-01T13:32:15.653Z,65.07
2023-05-01T13:35:04.719Z,65.45
2023-05-01T13:37:54.212Z,64.62
2023-05-01T13:40:42.919Z,64.39
2023-05-01T13:43:31.515Z,65.20
2023-05-01T13:46:24.613Z,64.05
2023-05-01T13:49:13.474Z,61.52
2023-05-01T13:52:02.072Z,61.03
2023-05-01T13:54:51.067Z,59.85
2023-05-01T13:57:40.526Z,58.40
2023-05-01T14:00:29.005Z,59.16
2023-05-01T14:03:19.350Z,58.77
2023-05-01T14:06:10.566Z,57.91
2023-05-01T14:08:59.891Z,55.74
2023-05-01T14:11:49.142Z,56.83
2023-05-01T14:14:37.840Z,56.09
2023-05-01T14:17:29.115Z,57.17
2023-05-01T14:20:19.095Z,57.59
2023-05-01T14:23:08.237Z,58.13
2023-05-01T14:25:57.023Z,58.48
2023-05-01T14:28:46.437Z,58.55
2023-05-01T14:31:35.273Z,59.37
2023-05-01T14:34:24.232Z,59.21
2023-05-01T14:37:15.113Z,59.33
2023-05-01T14:40:04.583Z,59.17
2023-05-01T14:42:53.921Z,59.80
2023-05-01T14:45:44.997Z,60.48
2023-05-01T14:48:39.491Z,59.84
2023-05-01T14:51:28.560Z,60.41
2023-05-01T14:54:18.918Z,60.27
2023-05-01T14:57:07.474Z,60.71
2023-05-01T14:59:56.027Z,60.80
2023-05-01T15:02:44.565Z,60.03
2023-05-01T15:05:34.350Z,60.89
2023-05-01T15:08:22.906Z,60.93
2023-05-01T15:11:14.033Z,61.71
2023-05-01T15:14:02.523Z,62.64
2023-05-01T15:16:51.592Z,61.11
2023-05-01T15:19:40.210Z,59.85
2023-05-01T15:22:28.677Z,57.90
2023-05-01T15:25:17.309Z,58.41
2023-05-01T15:28:07.246Z,57.01
2023-05-01T15:30:55.962Z,57.39
2023-05-01T15:33:45.015Z,56.01
2023-05-01T15:36:33.724Z,55.07
2023-05-01T15:39:22.236Z,54.48
2023-05-01T15:42:10.665Z,54.03
2023-05-01T15:45:02.375Z,54.83
2023-05-01T15:47:50.995Z,56.76
2023-05-01T15:50:39.466Z,56.13
2023-05-01T15:53:27.901Z,55.15
2023-05-01T15:56:16.424Z,55.82
2023-05-01T15:59:05.141Z,56.46
2023-05-01T16:01:55.453Z,56.59
2023-05-01T16:04:47.724Z,57.34
2023-05-01T16:07:36.248Z,57.43
2023-05-01T16:10:25.494Z,58.60
2023-05-01T16:13:14.311Z,58.95
2023-05-01T16:16:03.296Z,59.22
2023-05-01T16:18:56.564Z,59.48
2023-05-01T16:21:45.061Z,60.97
2023-05-01T16:24:33.664Z,62.31
2023-05-01T16:27:22.252Z,62.66
2023-05-01T16:30:11.943Z,63.53
2023-05-01T16:33:03.117Z,64.17
2023-05-01T16:35:53.092Z,64.93
2023-05-01T16:38:41.603Z,65.28
2023-05-01T16:41:30.207Z,65.58
2023-05-01T16:44:19.159Z,64.66
2023-05-01T16:47:07.703Z,63.49
2023-05-01T16:49:59.897Z,64.68
2023-05-01T16:52:50.450Z,67.81
2023-05-01T16:55:38.938Z,70.75
2023-05-01T16:58:27.822Z,74.63
2023-05-01T17:01:17.344Z,78.34
2023-05-01T17:04:06.308Z,82.96
2023-05-01T17:06:56.119Z,87.93
2023-05-01T17:09:46.118Z,92.19
2023-05-01T17:12:34.632Z,92.46
2023-05-01T17:15:23.150Z,93.01
2023-05-01T17:18:11.733Z,93.39
2023-05-01T17:21:00.315Z,94.05
2023-05-01T17:23:48.838Z,93.53
2023-05-01T17:26:38.803Z,96.12
2023-05-01T17:29:28.532Z,95.81
2023-05-01T17:32:33.138Z,97.52
2023-05-01T17:35:24.726Z,96.53
2023-05-01T17:38:13.212Z,98.52
2023-05-01T17:41:01.711Z,100.00
2023-05-01T17:43:51.636Z,99.53
2023-05-01T17:46:40.209Z,99.53
2023-05-01T17:49:28.677Z,97.66
2023-05-01T17:52:17.215Z,93.10
2023-05-01T17:55:06.637Z,92.52
2023-05-01T17:57:55.520Z,89.69
2023-05-01T18:00:45.557Z,91.06
2023-05-01T18:03:34.395Z,92.68
2023-05-01T18:06:23.206Z,93.65
2023-05-01T18:09:11.901Z,97.35
2023-05-01T18:12:00.537Z,99.13
2023-05-01T18:14:49.238Z,100.00
2023-05-01T18:17:39.123Z,100.00
2023-05-01T18:20:27.722Z,100.00
2023-05-01T18:23:16.873Z,100.00
2023-05-01T18:26:05.421Z,100.00
2023-05-01T18:28:54.034Z,100.00
2023-05-01T18:31:42.594Z,100.00
2023-05-01T18:34:32.484Z,100.00
2023-05-01T18:37:23.029Z,100.00
2023-05-01T18:40:12.568Z,100.00
2023-05-01T18:43:01.315Z,100.00
2023-05-01T18:45:49.817Z,100.00
2023-05-01T18:48:38.340Z,100.00
2023-05-01T18:51:28.400Z,100.00
2023-05-01T18:54:17.055Z,100.00
2023-05-01T18:57:05.912Z,100.00
2023-05-01T18:59:54.568Z,100.00
2023-05-01T19:02:43.183Z,100.00
2023-05-01T19:05:31.966Z,100.00
2023-05-01T19:08:21.883Z,100.00
2023-05-01T19:11:10.511Z,100.00
2023-05-01T19:13:59.276Z,100.00
2023-05-01T19:16:51.996Z,100.00
2023-05-01T19:19:40.514Z,100.00
2023-05-01T19:22:29.039Z,100.00
2023-05-01T19:25:19.716Z,100.00
2023-05-01T19:28:08.290Z,100.00
2023-05-01T19:30:56.829Z,100.00
2023-05-01T19:33:46.694Z,100.00
2023-05-01T19:36:35.273Z,100.00
2023-05-01T19:39:23.811Z,100.00
2023-05-01T19:42:13.784Z,100.00
2023-05-01T19:45:02.325Z,100.00
2023-05-01T19:47:50.893Z,100.00
2023-05-01T19:50:39.406Z,100.00
2023-05-01T19:53:28.295Z,100.00
2023-05-01T19:56:16.753Z,100.00
2023-05-01T19:59:06.542Z,100.00
2023-05-01T20:01:55.261Z,100.00
2023-05-01T20:04:44.300Z,100.00
2023-05-01T20:07:32.808Z,100.00
2023-05-01T20:10:21.354Z,100.00
2023-05-01T20:13:10.953Z,100.00
2023-05-01T20:16:02.854Z,100.00
2023-05-01T20:18:51.986Z,100.00
2023-05-01T20:21:40.481Z,100.00
2023-05-01T20:24:28.967Z,100.00
2023-05-01T20:27:17.425Z,100.00
2023-05-01T20:30:07.675Z,100.00
2023-05-01T20:32:57.738Z,100.00
2023-05-01T20:35:46.330Z,100.00
2023-05-01T20:38:35.095Z,100.00
2023-05-01T20:41:23.785Z,100.00
2023-05-01T20:44:12.265Z,100.00
2023-05-01T20:47:00.706Z,100.00
2023-05-01T20:49:50.495Z,100.00
2023-05-01T20:52:39.190Z,100.00
2023-05-01T20:55:28.047Z,100.00
2023-05-01T20:58:16.779Z,100.00
2023-05-01T21:01:06.597Z,100.00
2023-05-01T21:03:55.328Z,100.00
2023-05-01T21:06:45.455Z,100.00
2023-05-01T21:09:34.301Z,100.00
2023-05-01T21:12:23.132Z,100.00
2023-05-01T21:15:12.428Z,100.00
2023-05-01T21:18:01.185Z,100.00
2023-05-01T21:20:49.693Z,100.00
2023-05-01T21:23:41.539Z,100.00
2023-05-01T21:26:30.390Z,100.00
2023-05-01T21:29:19.369Z,100.00
2023-05-01T21:32:10.284Z,100.00
2023-05-01T21:34:58.908Z,100.00
2023-05-01T21:37:47.536Z,100.00
2023-05-01T21:40:38.982Z,100.00
2023-05-01T21:43:27.579Z,100.00
2023-05-01T21:46:17.699Z,100.00
2023-05-01T21:49:06.245Z,100.00
2023-05-01T21:51:55.399Z,100.00
2023-05-01T21:54:43.903Z,100.00
2023-05-01T21:57:33.836Z,100.00
2023-05-01T22:00:23.269Z,100.00
2023-05-01T22:03:12.348Z,100.00
2023-05-01T22:06:02.262Z,100.00
2023-05-01T22:08:51.199Z,100.00
2023-05-01T22:11:39.713Z,100.00
2023-05-01T22:14:40.233Z,100.00
2023-05-01T22:17:36.001Z,100.00
2023-05-01T22:20:24.857Z,100.00
2023-05-01T22:23:14.325Z,100.00
2023-05-01T22:26:02.814Z,100.00
2023-05-01T22:28:51.551Z,100.00
2023-05-01T22:31:41.502Z,100.00
2023-05-01T22:34:30.047Z,100.00
2023-05-01T22:37:18.954Z,100.00
2023-05-01T22:40:08.929Z,100.00
2023-05-01T22:42:57.409Z,100.00
2023-05-01T22:45:46.155Z,100.00
2023-05-01T22:48:36.164Z,100.00
2023-05-01T22:51:24.648Z,100.00
2023-05-01T22:54:13.147Z,100.00
2023-05-01T22:57:01.633Z,100.00
2023-05-01T22:59:50.162Z,100.00
2023-05-01T23:02:39.113Z,100.00
2023-05-01T23:05:29.266Z,100.00
2023-05-01T23:08:17.804Z,100.00
2023-05-01T23:11:06.517Z,100.00
2023-05-01T23:13:55.090Z,100.00
2023-05-01T23:16:43.713Z,100.00
2023-05-01T23:19:32.182Z,100.00
2023-05-01T23:22:23.117Z,100.00
2023-05-01T23:25:13.964Z,100.00
2023-05-01T23:28:03.222Z,100.00
2023-05-01T23:30:57.818Z,100.00
2023-05-01T23:33:46.342Z,100.00
2023-05-01T23:36:34.804Z,100.00
2023-05-01T23:39:24.731Z,100.00
2023-05-01T23:42:13.194Z,100.00
2023-05-01T23:45:01.637Z,100.00
2023-05-01T23:47:50.189Z,100.00
2023-05-01T23:50:38.919Z,100.00
2023-05-01T23:53:27.504Z,100.00
2023-05-01T23:56:17.373Z,100.00
2023-05-01T23:59:05.879Z,100.00
